createdAt,value
2022-09-12T00:01:16.920Z,24.77
2022-09-12T00:03:43.747Z,25.08
2022-09-12T00:06:21.974Z,27.00
2022-09-12T00:08:49.619Z,28.33
2022-09-12T00:11:16.039Z,27.80
2022-09-12T00:13:43.395Z,27.48
2022-09-12T00:16:25.582Z,26.75
2022-09-12T00:18:53.680Z,26.73
2022-09-12T00:21:21.656Z,27.38
2022-09-12T00:23:48.950Z,27.58
2022-09-12T00:26:17.259Z,28.00
2022-09-12T00:28:44.478Z,29.20
2022-09-12T00:31:14.577Z,29.02
2022-09-12T00:33:41.414Z,28.13
2022-09-12T00:36:12.259Z,28.70
2022-09-12T00:38:41.879Z,27.42
2022-09-12T00:41:15.267Z,27.80
2022-09-12T00:43:56.591Z,27.92
2022-09-12T00:46:49.646Z,27.63
2022-09-12T00:49:49.866Z,28.35
2022-09-12T00:52:42.038Z,28.10
2022-09-12T00:55:19.394Z,27.67
2022-09-12T00:57:54.198Z,27.70
2022-09-12T01:00:23.320Z,28.52
2022-09-12T01:02:56.798Z,28.92
2022-09-12T01:05:25.699Z,28.52
2022-09-12T01:07:53.031Z,30.20
2022-09-12T01:10:19.895Z,29.58
2022-09-12T01:12:46.499Z,29.80
2022-09-12T01:15:13.402Z,29.92
2022-09-12T01:18:02.079Z,28.58
2022-09-12T01:20:49.760Z,29.02
2022-09-12T01:23:31.170Z,28.52
2022-09-12T01:26:09.578Z,27.92
2022-09-12T01:28:57.482Z,28.42
2022-09-12T01:31:48.309Z,28.42
2022-09-12T01:34:28.386Z,28.42
2022-09-12T01:37:11.377Z,28.00
2022-09-12T01:39:53.757Z,29.33
2022-09-12T01:42:29.345Z,28.90
2022-09-12T01:45:00.049Z,27.42
2022-09-12T01:47:56.560Z,28.33
2022-09-12T01:50:28.962Z,29.52
2022-09-12T01:53:09.618Z,29.63
2022-09-12T01:55:42.427Z,29.58
2022-09-12T01:58:18.901Z,29.55
2022-09-12T02:01:09.620Z,29.13
2022-09-12T02:03:52.376Z,30.25
2022-09-12T02:06:23.798Z,29.95
2022-09-12T02:08:58.588Z,28.55
2022-09-12T02:11:25.104Z,28.95
2022-09-12T02:14:01.146Z,29.35
2022-09-12T02:16:49.419Z,29.65
2022-09-12T02:19:20.224Z,30.02
2022-09-12T02:21:53.439Z,29.40
2022-09-12T02:24:23.204Z,29.27
2022-09-12T02:27:05.272Z,28.45
2022-09-12T02:29:31.912Z,29.92
2022-09-12T02:32:01.808Z,29.33
2022-09-12T02:34:55.120Z,31.13
2022-09-12T02:37:39.607Z,29.75
2022-09-12T02:40:08.919Z,29.42
2022-09-12T02:42:36.937Z,30.03
2022-09-12T02:45:04.041Z,31.20
2022-09-12T02:47:52.477Z,31.40
2022-09-12T02:50:19.354Z,29.73
2022-09-12T02:52:46.463Z,30.88
2022-09-12T02:55:14.687Z,30.95
2022-09-12T02:57:41.076Z,31.33
2022-09-12T03:00:08.761Z,31.58
2022-09-12T03:03:14.622Z,32.15
2022-09-12T03:05:55.571Z,31.05
2022-09-12T03:08:31.273Z,31.27
2022-09-12T03:11:16.461Z,30.60
2022-09-12T03:14:48.525Z,31.38
2022-09-12T03:17:43.811Z,31.65
2022-09-12T03:20:13.655Z,31.88
2022-09-12T03:22:53.741Z,30.65
2022-09-12T03:25:30.846Z,30.83
2022-09-12T03:28:06.160Z,30.83
2022-09-12T03:30:41.062Z,31.33
2022-09-12T03:33:11.753Z,30.88
2022-09-12T03:35:38.341Z,30.52
2022-09-12T03:38:05.196Z,30.52
2022-09-12T03:40:31.743Z,30.98
2022-09-12T03:42:58.447Z,30.98
2022-09-12T03:45:25.051Z,30.52
2022-09-12T03:47:51.513Z,30.25
2022-09-12T03:50:18.160Z,30.30
2022-09-12T03:52:44.571Z,31.42
2022-09-12T03:55:10.963Z,31.70
2022-09-12T03:57:37.343Z,30.77
2022-09-12T04:00:05.921Z,31.17
2022-09-12T04:02:32.405Z,31.52
2022-09-12T04:04:58.958Z,31.30
2022-09-12T04:07:25.412Z,31.58
2022-09-12T04:09:53.144Z,32.42
2022-09-12T04:12:20.086Z,31.52
2022-09-12T04:14:46.565Z,31.15
2022-09-12T04:17:13.361Z,31.58
2022-09-12T04:19:39.821Z,31.75
2022-09-12T04:22:06.236Z,31.70
2022-09-12T04:24:32.656Z,31.30
2022-09-12T04:26:59.061Z,31.75
2022-09-12T04:29:25.491Z,30.75
2022-09-12T04:31:52.073Z,30.88
2022-09-12T04:34:18.717Z,31.00
2022-09-12T04:36:45.063Z,30.70
2022-09-12T04:39:12.188Z,30.17
2022-09-12T04:41:40.623Z,31.10
2022-09-12T04:44:11.515Z,30.58
2022-09-12T04:46:42.331Z,30.55
2022-09-12T04:49:09.308Z,29.73
2022-09-12T04:51:37.869Z,30.77
2022-09-12T04:54:07.540Z,30.05
2022-09-12T04:56:38.960Z,31.10
2022-09-12T04:59:05.757Z,30.83
2022-09-12T05:01:32.379Z,31.13
2022-09-12T05:04:00.012Z,31.45
2022-09-12T05:06:32.933Z,32.78
2022-09-12T05:09:00.325Z,31.23
2022-09-12T05:11:46.798Z,31.67
2022-09-12T05:14:16.303Z,31.60
2022-09-12T05:16:47.215Z,30.10
2022-09-12T05:19:15.589Z,31.35
2022-09-12T05:21:42.111Z,32.28
2022-09-12T05:24:11.375Z,32.10
2022-09-12T05:26:37.935Z,32.25
2022-09-12T05:29:05.575Z,32.03
2022-09-12T05:31:31.965Z,31.80
2022-09-12T05:33:58.460Z,32.47
2022-09-12T05:36:30.011Z,31.67
2022-09-12T05:38:59.130Z,33.03
2022-09-12T05:41:30.868Z,33.13
2022-09-12T05:43:59.046Z,32.15
2022-09-12T05:46:28.353Z,33.08
2022-09-12T05:48:56.647Z,33.25
2022-09-12T05:51:28.744Z,33.55
2022-09-12T05:53:58.199Z,32.78
2022-09-12T05:56:27.383Z,33.80
2022-09-12T05:59:05.587Z,34.50
2022-09-12T06:01:33.792Z,37.22
2022-09-12T06:04:03.459Z,37.72
2022-09-12T06:06:31.839Z,36.58
2022-09-12T06:09:01.016Z,39.53
2022-09-12T06:11:29.623Z,39.75
2022-09-12T06:13:57.818Z,43.88
2022-09-12T06:16:27.256Z,45.70
2022-09-12T06:18:56.587Z,43.20
2022-09-12T06:21:24.691Z,43.28
2022-09-12T06:23:51.289Z,46.33
2022-09-12T06:26:21.491Z,52.25
2022-09-12T06:31:20.477Z,49.15
2022-09-12T06:33:50.199Z,53.72
2022-09-12T06:36:22.130Z,56.55
2022-09-12T06:38:53.372Z,64.80
2022-09-12T06:41:19.748Z,58.90
2022-09-12T06:43:46.264Z,64.95
2022-09-12T06:46:13.434Z,65.03
2022-09-12T06:48:42.129Z,64.50
2022-09-12T06:51:16.578Z,63.22
2022-09-12T06:53:44.712Z,62.25
2022-09-12T06:56:20.264Z,61.53
2022-09-12T06:58:48.652Z,60.55
2022-09-12T07:01:21.033Z,59.50
2022-09-12T07:03:52.755Z,59.97
2022-09-12T07:06:21.952Z,61.55
2022-09-12T07:08:48.647Z,59.00
2022-09-12T07:11:20.098Z,58.08
2022-09-12T07:13:49.464Z,56.97
2022-09-12T07:16:19.754Z,53.50
2022-09-12T07:18:51.987Z,52.70
2022-09-12T07:21:18.785Z,51.92
2022-09-12T07:23:45.571Z,49.35
2022-09-12T07:26:14.132Z,44.97
2022-09-12T07:28:41.132Z,44.67
2022-09-12T07:31:09.100Z,44.17
2022-09-12T07:33:36.425Z,41.80
2022-09-12T07:36:05.604Z,36.50
2022-09-12T07:38:32.053Z,38.47
2022-09-12T07:40:58.944Z,37.40
2022-09-12T07:43:25.500Z,39.58
2022-09-12T07:45:56.669Z,37.65
2022-09-12T07:48:23.536Z,36.88
2022-09-12T07:51:01.384Z,35.60
2022-09-12T07:53:32.958Z,37.65
2022-09-12T07:55:59.748Z,29.88
2022-09-12T07:58:26.824Z,30.85
2022-09-12T08:00:53.606Z,26.27
2022-09-12T08:03:20.168Z,26.17
2022-09-12T08:05:46.575Z,26.20
2022-09-12T08:08:13.346Z,25.55
2022-09-12T08:10:39.719Z,26.08
2022-09-12T08:13:08.278Z,22.25
2022-09-12T08:15:36.581Z,22.85
2022-09-12T08:18:03.050Z,20.27
2022-09-12T08:20:30.176Z,20.27
2022-09-12T08:22:56.584Z,21.98
2022-09-12T08:25:23.407Z,19.42
2022-09-12T08:27:50.171Z,21.23
2022-09-12T08:30:16.556Z,17.35
2022-09-12T08:32:42.920Z,17.45
2022-09-12T08:35:09.503Z,15.88
2022-09-12T08:37:35.937Z,15.48
2022-09-12T08:40:02.580Z,15.60
2022-09-12T08:43:14.139Z,14.18
2022-09-12T08:45:54.264Z,14.52
2022-09-12T08:50:49.895Z,14.00
2022-09-12T08:53:21.277Z,13.25
2022-09-12T08:55:56.168Z,13.15
2022-09-12T08:58:24.583Z,12.90
2022-09-12T09:01:07.300Z,12.88
2022-09-12T09:03:52.248Z,12.25
2022-09-12T09:06:42.415Z,12.73
2022-09-12T09:09:17.955Z,12.60
2022-09-12T09:11:55.486Z,12.18
2022-09-12T09:14:49.337Z,13.98
2022-09-12T09:17:27.517Z,11.45
2022-09-12T09:20:02.372Z,11.32
2022-09-12T09:22:38.002Z,11.45
2022-09-12T09:25:11.032Z,10.80
2022-09-12T09:28:09.589Z,11.25
2022-09-12T09:30:36.963Z,11.95
2022-09-12T09:33:10.304Z,13.43
2022-09-12T09:35:44.847Z,12.30
2022-09-12T09:38:34.093Z,12.90
2022-09-12T09:41:08.418Z,12.52
2022-09-12T09:43:37.566Z,12.43
2022-09-12T09:46:04.601Z,12.15
2022-09-12T09:48:33.698Z,11.90
2022-09-12T09:51:02.491Z,11.80
2022-09-12T09:54:01.451Z,11.25
2022-09-12T09:56:27.930Z,11.00
2022-09-12T09:58:54.526Z,10.40
2022-09-12T10:01:21.170Z,12.85
2022-09-12T10:03:51.365Z,11.40
2022-09-12T10:06:20.938Z,11.02
2022-09-12T10:08:48.770Z,10.38
2022-09-12T10:11:15.054Z,10.90
2022-09-12T10:13:50.451Z,10.40
2022-09-12T10:16:31.883Z,9.80
2022-09-12T10:19:03.722Z,10.23
2022-09-12T10:21:50.765Z,10.10
2022-09-12T10:24:22.980Z,10.00
2022-09-12T10:26:57.199Z,10.35
2022-09-12T10:29:31.844Z,9.50
2022-09-12T10:32:02.121Z,9.57
2022-09-12T10:34:37.717Z,9.65
2022-09-12T10:37:32.471Z,9.50
2022-09-12T10:40:00.605Z,9.75
2022-09-12T10:42:50.047Z,9.93
2022-09-12T10:45:37.413Z,9.98
2022-09-12T10:48:27.408Z,9.23
2022-09-12T10:50:53.798Z,9.68
2022-09-12T10:53:29.914Z,9.40
2022-09-12T10:56:05.025Z,9.57
2022-09-12T10:58:59.961Z,9.13
2022-09-12T11:01:38.688Z,9.35
2022-09-12T11:04:27.598Z,8.50
2022-09-12T11:07:21.779Z,8.70
2022-09-12T11:10:06.927Z,9.43
2022-09-12T11:12:55.623Z,9.00
2022-09-12T11:15:53.021Z,8.52
2022-09-12T11:18:34.846Z,8.68
2022-09-12T11:21:10.409Z,8.95
2022-09-12T11:23:45.557Z,8.70
2022-09-12T11:26:18.981Z,8.98
2022-09-12T11:29:02.279Z,8.70
2022-09-12T11:31:40.311Z,8.57
2022-09-12T11:34:11.579Z,9.45
2022-09-12T11:36:47.760Z,9.50
2022-09-12T11:39:34.214Z,9.68
2022-09-12T11:42:05.490Z,9.30
2022-09-12T11:44:43.437Z,9.23
2022-09-12T11:47:13.681Z,9.55
2022-09-12T11:49:44.171Z,9.70
2022-09-12T11:52:16.835Z,9.57
2022-09-12T11:54:53.691Z,9.02
2022-09-12T11:57:30.934Z,9.40
2022-09-12T12:00:17.723Z,8.90
2022-09-12T12:02:59.162Z,9.43
2022-09-12T12:05:31.501Z,9.63
2022-09-12T12:08:01.065Z,9.48
2022-09-12T12:10:34.584Z,9.50
2022-09-12T12:13:10.706Z,9.55
2022-09-12T12:15:39.971Z,10.18
2022-09-12T12:18:18.906Z,9.98
2022-09-12T12:20:45.694Z,9.27
2022-09-12T12:23:31.818Z,9.68
2022-09-12T12:26:03.768Z,9.50
2022-09-12T12:28:44.524Z,9.95
2022-09-12T12:31:11.352Z,9.10
2022-09-12T12:33:37.748Z,9.38
2022-09-12T12:36:09.881Z,9.63
2022-09-12T12:38:38.817Z,9.30
2022-09-12T12:41:17.319Z,9.30
2022-09-12T12:43:52.011Z,12.50
2022-09-12T12:46:28.538Z,9.60
2022-09-12T12:49:09.643Z,9.48
2022-09-12T12:51:45.024Z,9.57
2022-09-12T12:54:29.715Z,9.48
2022-09-12T12:57:17.538Z,9.82
2022-09-12T12:59:55.059Z,9.75
2022-09-12T13:02:35.905Z,9.73
2022-09-12T13:05:06.492Z,9.38
2022-09-12T13:07:37.610Z,10.48
2022-09-12T13:10:07.232Z,34.08
2022-09-12T13:12:45.823Z,18.27
2022-09-12T13:15:34.098Z,10.93
2022-09-12T13:18:12.512Z,13.95
2022-09-12T13:20:54.212Z,13.32
2022-09-12T13:23:30.243Z,10.68
2022-09-12T13:26:01.747Z,10.18
2022-09-12T13:28:30.873Z,10.02
2022-09-12T13:31:11.822Z,10.68
2022-09-12T13:33:48.988Z,10.00
2022-09-12T13:36:27.594Z,9.98
2022-09-12T13:39:19.035Z,10.73
2022-09-12T13:42:04.397Z,10.95
2022-09-12T13:44:35.325Z,10.88
2022-09-12T13:47:03.735Z,11.40
2022-09-12T13:49:36.003Z,10.48
2022-09-12T13:52:25.249Z,10.23
2022-09-12T13:54:55.078Z,10.65
2022-09-12T14:00:19.262Z,10.65
2022-09-12T14:02:47.807Z,10.27
2022-09-12T14:05:22.085Z,10.38
2022-09-12T14:07:54.712Z,11.82
2022-09-12T14:10:28.418Z,11.60
2022-09-12T14:12:57.382Z,12.55
2022-09-12T14:15:27.448Z,12.10
2022-09-12T14:18:01.205Z,11.45
2022-09-12T14:20:36.178Z,11.70
2022-09-12T14:23:09.721Z,10.77
2022-09-12T14:25:41.457Z,11.68
2022-09-12T14:28:13.475Z,11.05
2022-09-12T14:30:39.931Z,11.88
2022-09-12T14:33:10.478Z,11.60
2022-09-12T14:35:51.499Z,9.82
2022-09-12T14:38:22.229Z,10.63
2022-09-12T14:40:53.004Z,10.05
2022-09-12T14:43:29.745Z,10.90
2022-09-12T14:46:05.603Z,12.90
2022-09-12T14:48:37.742Z,11.10
2022-09-12T14:51:05.337Z,9.18
2022-09-12T14:53:36.887Z,9.25
2022-09-12T14:56:08.933Z,11.73
2022-09-12T14:58:35.452Z,11.50
2022-09-12T15:01:23.290Z,9.75
2022-09-12T15:03:54.102Z,9.65
2022-09-12T15:06:23.105Z,8.90
2022-09-12T15:08:49.805Z,9.57
2022-09-12T15:11:16.736Z,10.48
2022-09-12T15:13:43.421Z,11.30
2022-09-12T15:16:11.958Z,10.90
2022-09-12T15:18:39.113Z,11.50
2022-09-12T15:21:08.506Z,11.07
2022-09-12T15:23:53.855Z,10.88
2022-09-12T15:26:30.412Z,10.68
2022-09-12T15:28:56.818Z,10.20
2022-09-12T15:31:29.553Z,17.08
2022-09-12T15:33:57.526Z,11.95
2022-09-12T15:36:24.867Z,11.63
2022-09-12T15:38:52.322Z,12.43
2022-09-12T15:41:21.853Z,11.60
2022-09-12T15:43:49.893Z,10.45
2022-09-12T15:46:17.796Z,10.70
2022-09-12T15:48:44.767Z,11.55
2022-09-12T15:51:16.041Z,10.85
2022-09-12T15:53:43.099Z,12.40
2022-09-12T15:56:09.580Z,12.05
2022-09-12T15:58:36.260Z,10.80
2022-09-12T16:01:02.972Z,10.82
2022-09-12T16:03:30.119Z,10.38
2022-09-12T16:05:59.576Z,11.63
2022-09-12T16:08:26.055Z,11.15
2022-09-12T16:11:19.772Z,10.75
2022-09-12T16:13:46.115Z,10.40
2022-09-12T16:16:12.547Z,10.68
2022-09-12T16:18:40.065Z,10.00
2022-09-12T16:21:09.006Z,10.43
2022-09-12T16:23:39.343Z,10.23
2022-09-12T16:26:06.600Z,11.30
2022-09-12T16:28:33.615Z,10.60
2022-09-12T16:31:02.374Z,11.27
2022-09-12T16:33:29.497Z,11.10
2022-09-12T16:36:22.107Z,10.20
2022-09-12T16:38:53.687Z,9.82
2022-09-12T16:41:24.626Z,10.25
2022-09-12T16:43:51.806Z,10.10
2022-09-12T16:46:23.769Z,10.52
2022-09-12T16:48:55.865Z,11.00
2022-09-12T16:51:27.687Z,11.07
2022-09-12T16:53:55.330Z,10.15
2022-09-12T16:56:22.321Z,10.27
2022-09-12T16:58:49.167Z,11.05
2022-09-12T17:01:21.155Z,10.63
2022-09-12T17:03:48.156Z,10.98
2022-09-12T17:06:18.055Z,11.02
2022-09-12T17:08:48.145Z,10.38
2022-09-12T17:11:17.882Z,10.45
2022-09-12T17:14:06.131Z,10.60
2022-09-12T17:16:38.529Z,12.02
2022-09-12T17:19:06.267Z,11.82
2022-09-12T17:21:32.953Z,11.38
2022-09-12T17:23:59.530Z,11.52
2022-09-12T17:26:26.092Z,11.02
2022-09-12T17:28:52.763Z,11.05
2022-09-12T17:31:19.692Z,11.20
2022-09-12T17:33:46.355Z,11.55
2022-09-12T17:36:16.252Z,11.27
2022-09-12T17:38:46.329Z,11.50
2022-09-12T17:43:52.762Z,10.82
2022-09-12T17:46:20.686Z,12.25
2022-09-12T17:48:55.125Z,11.68
2022-09-12T17:51:24.882Z,12.18
2022-09-12T17:54:02.454Z,11.68
2022-09-12T17:56:31.262Z,10.98
2022-09-12T17:58:59.066Z,11.90
2022-09-12T18:01:45.866Z,11.75
2022-09-12T18:04:12.560Z,11.95
2022-09-12T18:06:40.857Z,11.48
2022-09-12T18:09:09.286Z,11.63
2022-09-12T18:11:35.993Z,12.25
2022-09-12T18:14:02.853Z,12.63
2022-09-12T18:16:31.329Z,14.65
2022-09-12T18:19:01.444Z,13.05
2022-09-12T18:23:58.900Z,12.70
2022-09-12T18:26:26.799Z,18.08
2022-09-12T18:28:53.425Z,13.20
2022-09-12T18:31:22.477Z,13.48
2022-09-12T18:33:49.779Z,16.05
2022-09-12T18:36:17.516Z,12.98
2022-09-12T18:38:44.346Z,13.88
2022-09-12T18:41:16.962Z,14.50
2022-09-12T18:43:43.907Z,13.27
2022-09-12T18:46:13.616Z,14.90
2022-09-12T18:48:40.613Z,14.00
2022-09-12T18:51:14.737Z,13.88
2022-09-12T18:53:42.653Z,14.02
2022-09-12T18:56:13.440Z,13.82
2022-09-12T18:58:42.670Z,13.50
2022-09-12T19:01:17.045Z,13.77
2022-09-12T19:03:44.222Z,13.05
2022-09-12T19:06:13.572Z,13.27
2022-09-12T19:08:40.917Z,13.18
2022-09-12T19:11:08.868Z,14.77
2022-09-12T19:13:37.434Z,13.95
2022-09-12T19:16:05.344Z,13.75
2022-09-12T19:18:33.995Z,13.00
2022-09-12T19:21:01.444Z,13.57
2022-09-12T19:23:27.902Z,13.35
2022-09-12T19:25:59.696Z,14.50
2022-09-12T19:28:26.747Z,16.73
2022-09-12T19:30:53.594Z,14.60
2022-09-12T19:33:21.266Z,13.60
2022-09-12T19:35:48.269Z,14.27
2022-09-12T19:38:15.730Z,12.20
2022-09-12T19:40:42.978Z,20.55
2022-09-12T19:43:09.742Z,12.50
2022-09-12T19:45:36.496Z,13.85
2022-09-12T19:48:03.555Z,13.43
2022-09-12T19:50:32.467Z,14.55
2022-09-12T19:52:58.853Z,13.10
2022-09-12T19:55:25.335Z,15.15
2022-09-12T19:57:51.769Z,13.10
2022-09-12T20:00:18.203Z,13.38
2022-09-12T20:02:50.122Z,14.90
2022-09-12T20:05:16.607Z,13.07
2022-09-12T20:07:43.365Z,13.73
2022-09-12T20:10:09.922Z,13.57
2022-09-12T20:12:36.490Z,13.48
2022-09-12T20:15:03.612Z,13.35
2022-09-12T20:17:29.998Z,13.85
2022-09-12T20:19:56.370Z,13.88
2022-09-12T20:22:22.777Z,13.93
2022-09-12T20:24:49.342Z,14.23
2022-09-12T20:27:16.542Z,12.75
2022-09-12T20:29:43.342Z,13.05
2022-09-12T20:32:09.702Z,12.70
2022-09-12T20:34:36.308Z,12.88
2022-09-12T20:37:02.646Z,13.13
2022-09-12T20:39:29.135Z,12.63
2022-09-12T20:41:55.837Z,13.00
2022-09-12T20:44:22.339Z,15.35
2022-09-12T20:46:48.847Z,12.68
2022-09-12T20:49:15.297Z,14.38
2022-09-12T20:51:41.684Z,12.55
2022-09-12T20:54:08.163Z,12.25
2022-09-12T20:56:36.180Z,12.45
2022-09-12T20:59:03.912Z,12.20
2022-09-12T21:01:31.593Z,13.02
2022-09-12T21:03:59.835Z,12.07
2022-09-12T21:06:26.720Z,11.70
2022-09-12T21:08:58.431Z,11.70
2022-09-12T21:11:24.838Z,12.52
2022-09-12T21:13:52.258Z,12.05
2022-09-12T21:16:21.429Z,11.82
2022-09-12T21:18:53.929Z,12.20
2022-09-12T21:21:20.866Z,12.30
2022-09-12T21:23:47.459Z,12.00
2022-09-12T21:26:13.921Z,12.50
2022-09-12T21:28:40.399Z,12.00
2022-09-12T21:31:06.953Z,11.65
2022-09-12T21:33:33.422Z,12.02
2022-09-12T21:36:06.697Z,11.75
2022-09-12T21:38:33.873Z,13.82
2022-09-12T21:41:18.607Z,14.35
2022-09-12T21:43:45.405Z,11.70
2022-09-12T21:46:12.060Z,17.40
2022-09-12T21:48:38.613Z,12.85
2022-09-12T21:51:05.242Z,11.70
2022-09-12T21:53:32.189Z,12.23
2022-09-12T21:56:03.661Z,11.63
2022-09-12T21:58:30.203Z,11.95
2022-09-12T22:00:56.885Z,11.60
2022-09-12T22:03:23.296Z,11.95
2022-09-12T22:06:04.747Z,11.52
2022-09-12T22:08:33.506Z,11.50
2022-09-12T22:11:02.405Z,11.07
2022-09-12T22:13:32.216Z,11.13
2022-09-12T22:15:58.980Z,12.43
2022-09-12T22:18:25.418Z,11.63
2022-09-12T22:20:59.934Z,13.48
2022-09-12T22:23:44.954Z,15.10
2022-09-12T22:26:11.677Z,10.73
2022-09-12T22:28:38.408Z,10.45
2022-09-12T22:31:06.368Z,9.82
2022-09-12T22:33:32.789Z,9.98
2022-09-12T22:35:59.675Z,10.20
2022-09-12T22:38:26.234Z,10.07
2022-09-12T22:40:52.634Z,10.30
2022-09-12T22:43:19.054Z,10.13
2022-09-12T22:45:45.429Z,10.63
2022-09-12T22:48:11.961Z,10.77
2022-09-12T22:50:38.478Z,12.48
2022-09-12T22:53:04.897Z,10.35
2022-09-12T22:55:31.474Z,10.50
2022-09-12T22:57:57.857Z,10.07
2022-09-12T23:00:24.760Z,10.27
2022-09-12T23:02:51.260Z,10.30
2022-09-12T23:05:17.615Z,10.95
2022-09-12T23:07:44.162Z,10.05
2022-09-12T23:10:10.780Z,11.45
2022-09-12T23:12:37.380Z,10.07
2022-09-12T23:15:04.233Z,11.32
2022-09-12T23:17:30.679Z,11.18
2022-09-12T23:19:57.055Z,13.10
2022-09-12T23:22:23.412Z,11.25
2022-09-12T23:24:49.778Z,10.57
2022-09-12T23:27:16.136Z,11.05
2022-09-12T23:29:42.616Z,11.25
2022-09-12T23:32:09.076Z,10.30
2022-09-12T23:34:35.444Z,10.60
2022-09-12T23:37:01.859Z,9.68
2022-09-12T23:39:28.822Z,10.38
2022-09-12T23:41:55.511Z,10.15
2022-09-12T23:44:21.862Z,10.23
2022-09-12T23:46:48.264Z,10.18
2022-09-12T23:49:14.662Z,10.57
2022-09-12T23:51:41.071Z,10.30
2022-09-12T23:54:07.509Z,11.05
2022-09-12T23:56:34.225Z,10.15
2022-09-12T23:59:00.593Z,10.45
